Time;durP1;ratioP1;P1;durP2;ratioP2;P2;SDS_P1;SDS_P2;PMS_P1;PMS_P2;Temp;Humidity;BMP_temperature;BMP_pressure;BME280_temperature;BME280_humidity;BME280_pressure;Samples;Min_cycle;Max_cycle;Signal;HPM_P1;HPM_P2
2021/12/04 00:00:46;;;;;;;4.10;2.35;;;;;;;0.51;72.35;96249.06;5014109;28;20037;-52
2021/12/04 00:03:14;;;;;;;;;;;;;;;0.46;72.40;96235.59;5024932;28;20088;-54
2021/12/04 00:05:46;;;;;;;3.90;2.10;;;;;;;0.48;72.40;96230.88;5028095;28;19952;-51
2021/12/04 00:08:14;;;;;;;3.45;2.20;;;;;;;0.47;73.26;96224.72;5034060;28;20769;-52
2021/12/04 00:10:40;;;;;;;4.95;2.25;;;;;;;0.43;73.13;96228.84;5029830;28;20033;-53
2021/12/04 00:13:07;;;;;;;6.22;2.55;;;;;;;0.38;73.48;96218.81;5027779;28;20080;-52
2021/12/04 00:15:34;;;;;;;5.82;2.25;;;;;;;0.40;73.55;96220.47;5025485;28;20070;-55
2021/12/04 00:18:01;;;;;;;5.05;2.67;;;;;;;0.40;73.41;96204.50;5027764;28;20095;-50
2021/12/04 00:20:30;;;;;;;6.07;2.60;;;;;;;0.43;73.73;96204.06;5030013;28;20045;-50
2021/12/04 00:22:59;;;;;;;5.30;2.88;;;;;;;0.44;73.19;96197.72;5028341;28;20076;-49
2021/12/04 00:25:28;;;;;;;4.35;2.22;;;;;;;0.43;73.46;96198.72;5029199;28;20046;-57
2021/12/04 00:27:55;;;;;;;3.53;2.00;;;;;;;0.45;73.46;96194.00;5026323;28;20099;-53
2021/12/04 00:30:22;;;;;;;4.55;2.13;;;;;;;0.43;74.06;96194.22;5037062;28;20041;-53
2021/12/04 00:33:04;;;;;;;4.70;2.25;;;;;;;0.42;73.91;96192.59;5025197;28;20559;-54
2021/12/04 00:51:35;;;;;;;4.65;2.58;;;;;;;0.66;74.40;96162.72;5027425;28;20408;-52
2021/12/04 00:54:02;;;;;;;5.03;2.47;;;;;;;0.68;74.06;96152.63;5025898;28;20046;-52
2021/12/04 00:56:28;;;;;;;4.70;2.45;;;;;;;0.72;74.71;96157.31;5038572;28;20042;-52
2021/12/04 00:58:55;;;;;;;7.25;2.40;;;;;;;0.72;73.81;96143.16;5025279;28;20589;-53
2021/12/04 01:01:21;;;;;;;5.57;2.88;;;;;;;0.76;74.48;96139.84;5033584;28;20041;-51
2021/12/04 01:03:48;;;;;;;4.70;2.60;;;;;;;0.75;74.04;96132.09;5024144;28;20069;-51
2021/12/04 01:06:32;;;;;;;6.95;2.20;;;;;;;0.84;74.03;96135.25;5007817;28;20521;-51
2021/12/04 01:09:19;;;;;;;4.18;2.50;;;;;;;0.85;74.18;96127.03;5012838;28;20032;-50
2021/12/04 01:12:04;;;;;;;5.30;2.47;;;;;;;0.85;74.44;96127.03;5024457;28;20041;-52
2021/12/04 01:14:33;;;;;;;4.47;2.30;;;;;;;0.90;74.45;96121.88;5008534;28;20072;-52
2021/12/04 01:17:00;;;;;;;4.45;2.83;;;;;;;0.89;75.48;96116.78;5013206;28;20045;-52
2021/12/04 01:19:29;;;;;;;5.47;2.72;;;;;;;0.92;76.19;96115.53;5033761;28;20048;-51
2021/12/04 01:21:56;;;;;;;4.50;2.38;;;;;;;0.95;76.99;96115.09;5046428;28;20040;-51
2021/12/04 01:24:23;;;;;;;5.07;2.42;;;;;;;0.95;77.75;96107.88;5026579;28;20037;-48
2021/12/04 01:26:50;;;;;;;3.97;2.35;;;;;;;0.98;79.58;96103.97;5032674;28;20060;-52
2021/12/04 01:29:18;;;;;;;5.20;2.47;;;;;;;0.95;80.71;96104.41;5027302;28;20514;-49
2021/12/04 01:31:45;;;;;;;5.70;2.67;;;;;;;0.97;81.16;96102.34;5024654;28;20045;-48
2021/12/04 01:34:12;;;;;;;5.45;2.30;;;;;;;0.88;82.30;96097.31;5026067;28;20041;-51
2021/12/04 01:36:39;;;;;;;5.78;2.88;;;;;;;0.81;83.22;96096.53;5021287;28;20525;-52
2021/12/04 01:39:06;;;;;;;5.25;2.58;;;;;;;0.85;82.84;96099.59;5007799;28;20045;-54
2021/12/04 01:41:33;;;;;;;7.50;3.53;;;;;;;0.63;83.63;96100.03;5021391;28;20049;-53
2021/12/04 01:44:02;;;;;;;5.88;3.15;;;;;;;0.60;84.01;96095.97;5029666;28;20037;-54
2021/12/04 01:46:29;;;;;;;8.02;3.88;;;;;;;0.49;85.00;96092.16;5033624;28;20045;-54
2021/12/04 01:48:56;;;;;;;8.95;3.67;;;;;;;0.38;85.67;96077.69;5024245;28;20080;-52
2021/12/04 01:51:24;;;;;;;6.70;3.95;;;;;;;0.22;86.49;96083.59;5016852;28;20046;-53
2021/12/04 01:53:50;;;;;;;6.78;3.88;;;;;;;0.19;86.00;96079.50;5025909;28;20050;-53
2021/12/04 01:56:17;;;;;;;10.15;4.63;;;;;;;0.12;87.09;96071.56;5027044;28;20053;-51
2021/12/04 01:58:44;;;;;;;9.35;4.35;;;;;;;0.02;87.00;96065.09;5025944;28;20037;-52
2021/12/04 02:01:11;;;;;;;11.25;5.50;;;;;;;0.09;87.08;96053.38;5034897;28;20037;-54
2021/12/04 02:03:38;;;;;;;8.25;5.03;;;;;;;0.07;87.55;96057.31;5015492;28;20069;-49
2021/12/04 02:06:04;;;;;;;8.52;4.97;;;;;;;0.10;86.87;96052.34;5006183;28;22002;-50
2021/12/04 02:08:31;;;;;;;8.88;5.05;;;;;;;0.02;87.30;96049.13;5022290;28;20045;-50
2021/12/04 02:10:59;;;;;;;9.40;4.70;;;;;;;-0.01;87.64;96040.56;5027977;28;20041;-53
2021/12/04 02:13:27;;;;;;;10.05;5.50;;;;;;;-0.01;87.82;96048.53;5046885;28;20106;-50
2021/12/04 02:15:53;;;;;;;10.75;4.75;;;;;;;0.10;87.21;96032.88;5043334;28;20045;-52
2021/12/04 02:18:21;;;;;;;9.65;5.35;;;;;;;0.09;87.13;96034.75;5046582;28;20056;-53
2021/12/04 02:20:49;;;;;;;8.82;5.43;;;;;;;0.02;87.86;96017.19;5043738;28;20112;-52
2021/12/04 02:23:16;;;;;;;12.40;6.68;;;;;;;0.01;87.78;96019.06;5026621;28;20069;-48
2021/12/04 02:25:43;;;;;;;11.32;6.28;;;;;;;0.06;87.85;96018.38;5026296;28;20056;-51
2021/12/04 02:28:11;;;;;;;9.35;5.68;;;;;;;0.10;87.72;96009.75;5008211;28;20045;-52
2021/12/04 02:30:40;;;;;;;13.18;6.70;;;;;;;0.08;88.06;96006.47;5023312;28;20149;-52
2021/12/04 02:33:11;;;;;;;12.50;6.70;;;;;;;0.10;88.48;95995.63;5022367;28;20045;-52
2021/12/04 02:35:47;;;;;;;14.23;7.65;;;;;;;0.07;88.50;96004.06;5025568;28;20049;-50
2021/12/04 02:38:16;;;;;;;11.02;6.00;;;;;;;0.06;88.34;96000.59;5046539;28;20049;-53
2021/12/04 02:40:43;;;;;;;12.57;6.63;;;;;;;0.08;88.87;95990.50;5023429;28;20034;-54
2021/12/04 02:43:10;;;;;;;14.57;7.32;;;;;;;0.10;89.08;95993.78;5021616;28;20045;-53
2021/12/04 02:45:37;;;;;;;14.23;7.65;;;;;;;0.07;89.18;95986.22;5025769;28;20468;-50
2021/12/04 02:48:04;;;;;;;12.77;7.78;;;;;;;0.07;88.79;95980.91;5025885;28;20120;-49
2021/12/04 02:50:31;;;;;;;12.75;8.02;;;;;;;0.16;88.94;95983.28;5012835;28;20045;-49
2021/12/04 02:52:57;;;;;;;13.57;6.72;;;;;;;0.22;88.91;95969.13;5026086;28;20049;-48
2021/12/04 02:55:24;;;;;;;10.57;6.72;;;;;;;0.22;88.37;95964.59;5013950;28;20042;-52
2021/12/04 02:57:50;;;;;;;11.88;7.20;;;;;;;0.17;89.13;95959.13;5011964;28;20049;-53
2021/12/04 03:00:22;;;;;;;13.63;7.97;;;;;;;0.15;88.92;95968.34;5023621;28;20056;-52
2021/12/04 03:02:49;;;;;;;15.00;7.65;;;;;;;0.19;88.99;95956.25;5036995;28;20045;-53
2021/12/04 03:05:23;;;;;;;15.85;7.25;;;;;;;0.21;88.95;95957.63;5022900;28;20041;-53
2021/12/04 03:07:51;;;;;;;16.17;7.40;;;;;;;0.21;89.30;95951.50;5022477;28;20049;-52
2021/12/04 03:10:18;;;;;;;16.27;8.23;;;;;;;0.29;89.46;95940.56;5024902;28;20030;-51
2021/12/04 03:12:44;;;;;;;15.95;8.60;;;;;;;0.25;89.16;95934.88;5007279;28;20053;-50
2021/12/04 03:15:11;;;;;;;12.27;6.85;;;;;;;0.25;89.29;95932.22;5006325;28;20041;-52
2021/12/04 03:17:38;;;;;;;12.68;8.07;;;;;;;0.30;89.19;95928.06;5013332;28;20042;-52
2021/12/04 03:20:06;;;;;;;13.95;8.60;;;;;;;0.29;89.00;95919.25;5006081;28;20049;-53
2021/12/04 03:22:33;;;;;;;14.27;7.53;;;;;;;0.32;89.23;95913.50;5020658;28;20805;-51
2021/12/04 03:25:00;;;;;;;13.18;6.68;;;;;;;0.42;89.53;95912.16;5021374;28;20045;-48
2021/12/04 03:27:29;;;;;;;14.30;6.68;;;;;;;0.51;88.93;95894.81;5025231;28;20045;-54
2021/12/04 03:29:58;;;;;;;11.30;5.90;;;;;;;0.49;88.78;95889.75;5025481;28;20041;-52
2021/12/04 03:43:18;;;;;;;11.10;6.00;;;;;;;0.61;89.00;95870.31;5006168;28;20046;-54
2021/12/04 03:45:47;;;;;;;10.05;5.72;;;;;;;0.60;88.98;95868.72;5024921;28;20037;-54
2021/12/04 03:48:29;;;;;;;10.10;5.57;;;;;;;0.62;88.61;95864.78;5024927;28;20103;-53
2021/12/04 03:50:57;;;;;;;11.80;6.43;;;;;;;0.62;88.55;95854.13;5017403;28;20580;-53
2021/12/04 03:53:24;;;;;;;10.10;4.90;;;;;;;0.76;88.60;95854.75;5042755;28;20041;-50
2021/12/04 03:55:51;;;;;;;8.82;4.75;;;;;;;0.68;88.61;95852.41;5025135;28;20048;-53
2021/12/04 03:58:20;;;;;;;7.40;4.20;;;;;;;0.77;88.12;95852.88;5022730;28;20049;-53
2021/12/04 04:00:48;;;;;;;11.52;5.53;;;;;;;0.70;88.11;95844.19;5024253;28;20096;-51
2021/12/04 04:03:16;;;;;;;7.60;4.55;;;;;;;0.77;88.29;95836.91;5025510;28;20041;-49
2021/12/04 04:05:42;;;;;;;9.07;5.07;;;;;;;0.69;89.74;95830.03;5017627;28;20536;-50
2021/12/04 04:08:11;;;;;;;8.88;5.10;;;;;;;0.66;88.62;95833.16;5004989;28;20052;-48
2021/12/04 04:10:38;;;;;;;8.18;4.18;;;;;;;0.72;89.40;95834.94;5025523;28;20056;-51
2021/12/04 04:13:08;;;;;;;8.00;4.57;;;;;;;0.72;88.55;95826.94;5005487;28;20549;-52
2021/12/04 04:15:34;;;;;;;7.13;4.13;;;;;;;0.76;88.54;95824.63;5013517;28;20056;-50
2021/12/04 04:18:01;;;;;;;9.45;5.07;;;;;;;0.75;89.16;95820.34;5026449;28;20527;-47
2021/12/04 04:20:28;;;;;;;8.63;5.15;;;;;;;0.72;89.46;95810.94;5019916;28;20394;-50
2021/12/04 04:22:55;;;;;;;8.43;5.18;;;;;;;0.71;89.15;95805.84;5005485;28;20440;-54
2021/12/04 04:25:22;;;;;;;8.23;4.53;;;;;;;0.76;89.72;95808.63;5016910;28;20041;-54
2021/12/04 04:27:49;;;;;;;8.75;4.70;;;;;;;0.76;89.62;95800.63;5019982;28;20052;-54
2021/12/04 04:30:19;;;;;;;7.80;4.15;;;;;;;0.71;89.92;95798.69;5023410;28;20520;-54
2021/12/04 04:32:48;;;;;;;7.93;4.18;;;;;;;0.81;90.43;95799.97;5022004;28;20046;-54
2021/12/04 04:35:17;;;;;;;8.40;4.15;;;;;;;0.86;88.82;95794.75;5024088;28;20123;-55
2021/12/04 04:59:32;;;;;;;5.88;3.15;;;;;;;1.09;88.92;95766.50;5028191;28;20520;-53
2021/12/04 05:13:02;;;;;;;5.60;2.63;;;;;;;1.11;88.98;95735.09;5014356;28;20411;-53
2021/12/04 05:18:23;;;;;;;4.93;2.90;;;;;;;1.28;89.13;95735.22;5034943;28;20056;-51
2021/12/04 05:21:03;;;;;;;5.88;3.17;;;;;;;1.32;88.67;95732.91;5009545;28;20111;-53
2021/12/04 05:23:39;;;;;;;4.57;2.63;;;;;;;1.38;88.61;95737.28;5028044;28;20041;-54
2021/12/04 05:26:09;;;;;;;5.20;2.85;;;;;;;1.37;89.07;95731.13;5047832;28;20044;-49
2021/12/04 05:28:36;;;;;;;6.70;3.38;;;;;;;1.36;88.87;95732.19;5047720;28;20061;-48
2021/12/04 05:31:03;;;;;;;5.82;3.25;;;;;;;1.28;89.04;95727.22;5029666;28;20038;-48
2021/12/04 05:33:29;;;;;;;4.75;2.78;;;;;;;1.28;88.92;95725.34;5045432;28;20041;-53
2021/12/04 05:35:56;;;;;;;5.00;2.80;;;;;;;1.30;89.27;95728.59;5044080;28;20046;-47
2021/12/04 05:38:23;;;;;;;5.40;3.13;;;;;;;1.45;89.08;95715.81;5018695;28;20100;-54
2021/12/04 05:40:51;;;;;;;5.20;2.50;;;;;;;1.50;88.92;95713.25;5008973;28;20053;-54
2021/12/04 05:43:22;;;;;;;4.40;2.63;;;;;;;1.52;88.80;95711.97;5021353;28;20088;-53
2021/12/04 05:46:13;;;;;;;5.03;3.15;;;;;;;1.49;89.01;95703.63;5008157;28;20433;-54
2021/12/04 05:56:18;;;;;;;4.43;2.22;;;;;;;1.56;88.44;95699.00;5026456;28;20053;-55
2021/12/04 05:58:44;;;;;;;4.57;2.42;;;;;;;1.39;90.21;95702.38;5032442;28;20053;-53
2021/12/04 06:01:12;;;;;;;5.38;2.53;;;;;;;1.38;90.10;95706.09;5034865;28;20029;-54
2021/12/04 06:03:39;;;;;;;5.35;2.60;;;;;;;1.41;90.35;95694.16;5023392;28;20072;-55
2021/12/04 06:06:06;;;;;;;6.00;2.55;;;;;;;1.43;89.91;95689.38;5030685;28;20071;-54
2021/12/04 06:08:33;;;;;;;4.22;2.38;;;;;;;1.45;90.05;95700.66;5018461;28;20052;-55
2021/12/04 06:11:00;;;;;;;4.38;2.15;;;;;;;1.55;89.52;95695.50;5026882;28;20060;-53
2021/12/04 06:13:27;;;;;;;4.43;2.30;;;;;;;1.56;89.92;95699.00;5026721;28;20045;-54
2021/12/04 06:15:56;;;;;;;4.40;2.10;;;;;;;1.48;90.42;95694.84;5026450;28;20055;-51
2021/12/04 06:18:23;;;;;;;3.80;2.08;;;;;;;1.56;91.30;95683.00;5023312;28;20039;-54
2021/12/04 06:23:36;;;;;;;4.88;2.35;;;;;;;1.68;90.87;95686.44;5024924;28;20049;-53
2021/12/04 06:26:06;;;;;;;4.07;2.20;;;;;;;1.67;90.10;95686.66;5015803;28;20042;-49
2021/12/04 06:28:32;;;;;;;5.00;1.90;;;;;;;1.75;89.52;95674.81;5015104;28;20043;-52
2021/12/04 06:31:00;;;;;;;3.85;2.00;;;;;;;1.75;90.05;95678.28;5043065;28;20055;-52
2021/12/04 06:33:27;;;;;;;3.22;1.73;;;;;;;1.87;90.10;95686.25;5022453;28;20056;-52
2021/12/04 06:35:54;;;;;;;4.70;2.08;;;;;;;1.87;89.65;95685.44;5026433;28;20038;-50
2021/12/04 06:38:21;;;;;;;4.30;2.20;;;;;;;1.82;90.13;95688.81;5025874;28;20559;-51
2021/12/04 06:40:48;;;;;;;4.30;1.70;;;;;;;1.85;90.47;95685.69;5017470;28;20041;-53
2021/12/04 06:43:18;;;;;;;3.05;2.00;;;;;;;1.90;89.82;95688.44;5017330;28;20067;-52
2021/12/04 06:45:51;;;;;;;3.28;1.88;;;;;;;1.96;90.31;95684.03;5022923;28;20044;-50
2021/12/04 06:48:21;;;;;;;2.83;1.40;;;;;;;1.94;90.03;95675.44;5025537;28;20045;-53
2021/12/04 06:50:56;;;;;;;3.05;1.63;;;;;;;2.06;90.19;95678.03;5024229;28;20736;-51
2021/12/04 06:55:57;;;;;;;4.13;1.83;;;;;;;2.18;89.95;95675.34;5020230;28;20529;-55
2021/12/04 06:58:26;;;;;;;3.53;1.80;;;;;;;2.25;89.34;95683.19;5023316;28;20053;-51
2021/12/04 07:00:54;;;;;;;4.75;2.00;;;;;;;2.24;89.14;95671.69;5031668;28;20048;-55
2021/12/04 07:03:21;;;;;;;4.25;1.95;;;;;;;2.28;88.88;95667.47;5028152;28;20128;-50
2021/12/04 07:05:48;;;;;;;3.33;1.77;;;;;;;2.27;88.72;95662.38;5017694;28;20108;-53
2021/12/04 07:08:15;;;;;;;3.55;1.55;;;;;;;2.23;89.20;95666.59;5020869;28;20104;-51
2021/12/04 07:10:42;;;;;;;2.97;1.67;;;;;;;2.23;89.07;95658.56;5031354;28;20483;-52
2021/12/04 07:13:09;;;;;;;3.15;1.70;;;;;;;2.19;89.84;95667.09;5035955;28;20048;-55
2021/12/04 07:15:36;;;;;;;5.07;2.38;;;;;;;2.13;90.30;95659.22;5025656;28;20041;-51
2021/12/04 07:18:03;;;;;;;4.05;1.90;;;;;;;2.23;90.63;95669.25;5029492;28;20063;-55
2021/12/04 07:20:31;;;;;;;5.35;1.95;;;;;;;2.31;90.21;95671.53;5035706;28;20644;-50
2021/12/04 07:22:59;;;;;;;5.38;2.10;;;;;;;2.41;89.54;95665.56;5034186;28;20046;-55
2021/12/04 07:25:26;;;;;;;4.47;2.30;;;;;;;2.36;89.63;95666.28;5031679;28;20049;-54
2021/12/04 07:27:54;;;;;;;3.88;1.92;;;;;;;2.37;89.86;95661.75;5006703;28;20050;-55
2021/12/04 07:30:22;;;;;;;4.05;2.10;;;;;;;2.24;90.25;95661.00;5014449;28;20508;-55
2021/12/04 07:32:50;;;;;;;4.95;2.50;;;;;;;2.21;90.58;95662.28;5031126;28;20048;-55
2021/12/04 07:35:18;;;;;;;3.75;1.77;;;;;;;2.29;90.49;95660.28;5011226;28;20574;-55
2021/12/04 07:37:44;;;;;;;3.47;1.67;;;;;;;2.36;90.15;95670.81;5029727;28;20478;-55
2021/12/04 07:40:11;;;;;;;3.08;1.70;;;;;;;2.44;90.06;95668.53;5033717;28;20103;-54
2021/12/04 07:42:38;;;;;;;5.32;2.28;;;;;;;2.47;90.50;95673.41;5020317;28;20041;-54
2021/12/04 07:45:06;;;;;;;5.00;2.17;;;;;;;2.52;89.76;95667.34;5024442;28;20051;-57
2021/12/04 07:47:32;;;;;;;3.25;1.75;;;;;;;2.62;89.56;95668.56;5022347;28;20033;-57
2021/12/04 07:50:01;;;;;;;5.53;1.60;;;;;;;2.58;89.66;95669.03;5022324;28;20046;-56
2021/12/04 07:52:27;;;;;;;5.00;2.15;;;;;;;2.47;90.07;95659.25;5026364;28;20049;-56
2021/12/04 07:54:54;;;;;;;3.15;1.65;;;;;;;2.47;90.47;95657.38;5024035;28;20048;-56
2021/12/04 07:57:21;;;;;;;6.32;2.97;;;;;;;2.45;90.58;95664.03;5023797;28;20060;-56
2021/12/04 07:59:47;;;;;;;4.25;2.38;;;;;;;2.50;90.46;95663.31;5022364;28;20049;-55
2021/12/04 08:02:14;;;;;;;5.03;2.03;;;;;;;2.52;90.66;95658.50;5023750;28;20519;-55
2021/12/04 08:04:41;;;;;;;3.05;1.80;;;;;;;2.52;90.95;95663.84;5041837;28;20045;-56
2021/12/04 08:07:07;;;;;;;4.38;1.85;;;;;;;2.59;90.85;95656.50;5042282;28;20049;-56
2021/12/04 08:09:34;;;;;;;4.78;2.30;;;;;;;2.63;90.36;95651.47;5022288;28;20049;-56
2021/12/04 08:12:01;;;;;;;4.60;2.15;;;;;;;2.69;90.49;95653.97;5024771;28;20390;-55
2021/12/04 08:14:28;;;;;;;4.57;2.05;;;;;;;2.70;90.80;95652.91;5034487;28;20069;-54
2021/12/04 08:16:54;;;;;;;3.92;1.95;;;;;;;2.81;90.46;95647.75;5038580;28;20582;-54
2021/12/04 08:19:21;;;;;;;3.40;2.05;;;;;;;2.78;90.47;95649.03;5030074;28;20046;-55
2021/12/04 08:21:47;;;;;;;4.18;2.35;;;;;;;2.81;90.70;95643.22;5026875;28;20053;-54
2021/12/04 08:24:14;;;;;;;4.78;2.38;;;;;;;2.95;90.14;95640.97;5033813;28;20041;-56
2021/12/04 08:26:41;;;;;;;3.10;1.65;;;;;;;2.98;89.87;95650.38;5031434;28;20041;-56
2021/12/04 08:29:08;;;;;;;4.18;2.20;;;;;;;3.12;89.67;95637.47;5023900;28;20048;-56
2021/12/04 08:31:36;;;;;;;3.05;1.50;;;;;;;3.21;89.15;95635.19;5024177;28;20863;-56
2021/12/04 08:34:03;;;;;;;3.17;1.67;;;;;;;3.20;89.48;95638.91;5028154;28;20037;-57
2021/12/04 08:36:32;;;;;;;6.18;2.00;;;;;;;3.31;88.98;95632.63;5031055;28;20052;-55
2021/12/04 08:39:01;;;;;;;4.03;1.80;;;;;;;3.27;89.50;95636.06;5027596;28;20041;-57
2021/12/04 08:41:27;;;;;;;3.88;1.98;;;;;;;3.29;89.32;95642.78;5031083;28;20044;-56
2021/12/04 08:43:55;;;;;;;3.90;1.80;;;;;;;3.31;88.85;95635.31;5030524;28;20045;-56
2021/12/04 08:46:22;;;;;;;3.70;1.92;;;;;;;3.24;89.68;95632.81;5030788;28;20049;-56
2021/12/04 08:48:52;;;;;;;4.60;1.90;;;;;;;3.28;89.65;95633.13;5027584;28;20053;-57
2021/12/04 08:51:21;;;;;;;3.25;1.98;;;;;;;3.38;88.94;95643.97;5027934;28;20045;-57
2021/12/04 08:53:52;;;;;;;5.20;1.92;;;;;;;3.37;89.55;95636.19;5037534;28;20058;-56
2021/12/04 08:56:19;;;;;;;5.15;2.30;;;;;;;3.37;89.50;95639.69;5035088;28;20056;-56
2021/12/04 08:58:46;;;;;;;3.67;2.00;;;;;;;3.47;89.40;95643.53;5032978;28;20041;-57
2021/12/04 09:01:24;;;;;;;3.38;1.98;;;;;;;3.53;89.05;95631.81;5030803;28;20041;-56
2021/12/04 09:04:01;;;;;;;6.75;2.30;;;;;;;3.47;89.52;95638.97;5033448;28;20098;-57
2021/12/04 09:06:28;;;;;;;3.88;2.05;;;;;;;3.54;89.72;95633.44;5027317;28;20053;-57
2021/12/04 09:08:54;;;;;;;5.28;2.10;;;;;;;3.58;89.38;95634.53;5026495;28;20429;-55
2021/12/04 09:11:29;;;;;;;4.30;1.95;;;;;;;3.57;89.68;95629.47;5027313;28;20421;-53
2021/12/04 09:13:56;;;;;;;4.15;2.25;;;;;;;3.59;89.72;95628.16;5029516;28;20044;-56
2021/12/04 09:16:24;;;;;;;4.45;2.10;;;;;;;3.69;89.35;95627.44;5028191;28;20044;-55
2021/12/04 09:18:51;;;;;;;3.80;2.03;;;;;;;3.79;89.41;95618.72;5028030;28;20037;-55
2021/12/04 09:21:18;;;;;;;3.53;2.00;;;;;;;3.77;89.57;95618.16;5032640;28;20041;-56
2021/12/04 09:23:52;;;;;;;3.25;1.58;;;;;;;3.88;89.55;95621.75;5028818;28;20073;-56
2021/12/04 09:26:40;;;;;;;3.10;1.83;;;;;;;3.89;89.72;95618.84;5021006;28;20052;-51
2021/12/04 09:29:24;;;;;;;3.75;1.65;;;;;;;4.08;89.09;95623.81;5029836;28;20049;-54
2021/12/04 09:32:30;;;;;;;4.53;2.20;;;;;;;3.99;89.76;95615.47;5021510;28;20052;-55
2021/12/04 10:02:09;;;;;;;2.65;1.52;;;;;;;4.72;89.55;95589.22;5015085;28;20080;-48
2021/12/04 10:32:42;;;;;;;3.08;1.38;;;;;;;5.51;88.02;95534.84;5035790;28;19925;-58
2021/12/04 10:34:49;;;;;;;2.50;1.42;;;;;;;5.53;88.51;95539.94;5033847;28;20059;-58
2021/12/04 10:37:25;;;;;;;2.55;1.40;;;;;;;5.58;88.53;95535.41;5038798;28;20053;-59
2021/12/04 10:39:54;;;;;;;3.72;1.50;;;;;;;5.61;88.42;95526.00;5036259;28;20045;-55
2021/12/04 10:42:25;;;;;;;3.13;1.60;;;;;;;5.61;88.44;95528.69;5044818;28;20044;-57
2021/12/04 10:44:55;;;;;;;3.63;1.40;;;;;;;5.62;88.30;95518.75;5039821;28;20060;-54
2021/12/04 10:47:24;;;;;;;2.55;1.30;;;;;;;5.66;88.43;95514.44;5022908;28;20072;-48
2021/12/04 10:50:08;;;;;;;5.63;1.60;;;;;;;5.73;88.37;95509.63;5031169;28;20075;-56
2021/12/04 10:52:51;;;;;;;3.08;1.42;;;;;;;5.82;88.33;95507.25;5032661;28;20115;-55
2021/12/04 10:55:29;;;;;;;3.22;1.30;;;;;;;5.81;88.52;95498.38;5009871;28;20049;-52
2021/12/04 11:04:11;;;;;;;4.65;1.58;;;;;;;6.13;88.28;95487.66;5021889;28;20059;-50
2021/12/04 11:37:45;;;;;;;3.47;1.48;;;;;;;6.38;88.90;95452.66;5021798;28;20440;-57
2021/12/04 11:42:41;;;;;;;2.22;1.10;;;;;;;6.38;89.09;95452.66;5037232;28;20538;-56
2021/12/04 11:45:22;;;;;;;2.85;1.30;;;;;;;6.44;88.95;95449.97;5028716;28;20048;-59
2021/12/04 11:47:55;;;;;;;2.05;1.20;;;;;;;6.50;88.56;95443.50;5040882;28;20504;-57
2021/12/04 11:50:28;;;;;;;1.95;1.13;;;;;;;6.56;88.75;95431.66;5027112;28;20061;-51
2021/12/04 11:53:09;;;;;;;2.63;1.10;;;;;;;6.64;88.20;95432.97;5018441;28;20053;-52
2021/12/04 11:55:41;;;;;;;1.45;0.93;;;;;;;6.67;88.04;95426.25;5020581;28;20707;-60
2021/12/04 11:58:23;;;;;;;3.50;1.40;;;;;;;6.80;87.52;95419.44;5012730;28;20050;-60
2021/12/04 12:00:56;;;;;;;8.38;1.48;;;;;;;6.78;88.16;95408.19;5021404;28;20048;-56
2021/12/04 12:03:26;;;;;;;4.63;1.23;;;;;;;6.85;87.57;95404.09;5023248;28;20044;-59
2021/12/04 12:05:54;;;;;;;2.08;0.93;;;;;;;6.84;87.43;95394.44;5031254;28;20436;-60
2021/12/04 12:08:28;;;;;;;2.42;0.95;;;;;;;6.88;86.79;95395.47;5017048;28;20095;-58
2021/12/04 12:10:58;;;;;;;2.17;1.00;;;;;;;7.01;86.41;95394.06;5024337;28;20497;-57
2021/12/04 12:13:30;;;;;;;1.77;1.08;;;;;;;6.88;86.91;95387.41;5024003;28;20041;-59
2021/12/04 12:16:08;;;;;;;1.83;0.90;;;;;;;6.80;87.56;95381.78;5024948;28;20044;-58
2021/12/04 12:18:54;;;;;;;2.03;1.10;;;;;;;6.78;87.49;95386.66;5024323;28;20045;-58
2021/12/04 12:21:28;;;;;;;1.92;1.00;;;;;;;6.79;87.08;95377.50;5025070;28;20068;-57
2021/12/04 12:27:43;;;;;;;3.15;1.42;;;;;;;6.79;87.85;95377.50;5010224;28;20088;-56
2021/12/04 12:33:19;;;;;;;3.65;1.20;;;;;;;6.73;88.55;95364.09;5008735;28;20568;-59
2021/12/04 12:36:10;;;;;;;4.40;1.10;;;;;;;6.76;88.35;95365.41;5024287;28;20045;-53
2021/12/04 12:38:42;;;;;;;4.28;1.13;;;;;;;6.73;88.51;95360.59;5020880;28;20059;-54
2021/12/04 12:41:31;;;;;;;2.30;1.10;;;;;;;6.74;88.78;95359.50;5019629;28;20041;-51
2021/12/04 12:44:03;;;;;;;4.47;1.40;;;;;;;6.81;88.51;95348.47;5019902;28;20049;-54
2021/12/04 12:46:34;;;;;;;2.70;1.30;;;;;;;6.78;89.04;95347.09;5024237;28;20108;-52
2021/12/04 12:49:04;;;;;;;4.45;1.30;;;;;;;6.83;88.92;95351.66;5043111;28;20045;-49
2021/12/04 12:51:35;;;;;;;2.28;1.00;;;;;;;6.94;88.45;95339.75;5026829;28;20049;-56
2021/12/04 12:54:06;;;;;;;2.70;1.40;;;;;;;6.94;88.86;95345.16;5028353;28;20243;-51
2021/12/04 12:56:37;;;;;;;3.03;1.42;;;;;;;6.93;88.85;95329.28;5028628;28;20056;-56
2021/12/04 12:59:20;;;;;;;2.22;1.48;;;;;;;6.99;88.37;95334.34;5023587;28;20057;-59
2021/12/04 13:13:34;;;;;;;4.03;2.15;;;;;;;6.98;88.50;95348.06;5041369;28;20115;-57
2021/12/04 13:16:19;;;;;;;6.38;3.10;;;;;;;6.98;88.31;95345.38;5024226;28;20049;-56
2021/12/04 13:18:53;;;;;;;11.80;6.40;;;;;;;6.95;88.53;95343.25;5022182;28;20048;-56
2021/12/04 13:21:19;;;;;;;2.80;1.10;;;;;;;6.97;88.33;95349.16;5027144;28;20056;-56
2021/12/04 13:23:52;;;;;;;2.97;1.30;;;;;;;7.04;88.09;95344.25;5030787;28;20049;-55
2021/12/04 13:26:30;;;;;;;13.13;6.35;;;;;;;7.00;88.30;95335.13;5045818;28;20049;-57
2021/12/04 13:28:59;;;;;;;3.85;1.60;;;;;;;6.94;88.93;95344.34;5034902;28;20056;-55
2021/12/04 13:31:27;;;;;;;4.07;1.70;;;;;;;6.97;88.37;95335.72;5027343;28;20052;-54
2021/12/04 13:33:55;;;;;;;7.97;3.72;;;;;;;6.93;88.79;95338.13;5031471;28;20043;-51
2021/12/04 13:36:30;;;;;;;7.68;3.30;;;;;;;6.87;89.28;95332.00;5022650;28;20046;-54
2021/12/04 13:39:09;;;;;;;19.23;8.57;;;;;;;6.82;89.90;95337.41;5019281;28;20523;-53
2021/12/04 13:41:38;;;;;;;11.45;3.83;;;;;;;6.75;90.38;95337.69;5027136;28;20395;-54
2021/12/04 13:44:08;;;;;;;15.68;7.45;;;;;;;6.73;90.43;95341.75;5027120;28;20056;-53
2021/12/04 13:47:03;;;;;;;5.70;2.88;;;;;;;6.76;90.07;95347.41;5026468;28;20483;-56
2021/12/04 13:49:34;;;;;;;2.97;1.40;;;;;;;6.75;90.18;95339.59;5021230;28;20107;-56
2021/12/04 13:52:06;;;;;;;3.83;2.30;;;;;;;6.75;90.00;95344.97;5021966;28;20069;-58
2021/12/04 13:54:34;;;;;;;;;;;;;;;6.73;90.07;95339.88;5023760;28;20045;-57
2021/12/04 13:57:01;;;;;;;4.03;1.73;;;;;;;6.70;90.64;95350.38;5023251;28;20456;-55
2021/12/04 13:59:28;;;;;;;6.20;3.55;;;;;;;6.66;91.14;95346.66;5030799;28;20068;-53
2021/12/04 14:01:55;;;;;;;8.82;5.32;;;;;;;6.63;91.14;95350.66;5024569;28;20041;-59
2021/12/04 14:04:22;;;;;;;24.67;12.57;;;;;;;6.64;91.21;95358.47;5028447;28;20049;-58
2021/12/04 14:06:55;;;;;;;5.70;2.60;;;;;;;6.68;91.26;95352.53;5021256;28;20164;-59
2021/12/04 14:09:29;;;;;;;10.68;4.45;;;;;;;6.68;91.09;95347.97;5023198;28;20049;-58
2021/12/04 14:11:56;;;;;;;6.18;3.65;;;;;;;6.70;91.13;95351.19;5016286;28;20759;-58
2021/12/04 14:14:27;;;;;;;19.13;15.45;;;;;;;6.74;90.96;95336.09;5026456;28;20049;-58
2021/12/04 14:17:01;;;;;;;5.35;2.92;;;;;;;6.75;90.94;95336.91;5041087;28;20134;-58
2021/12/04 14:19:29;;;;;;;4.95;2.60;;;;;;;6.79;90.75;95343.34;5020916;28;20099;-58
2021/12/04 14:22:01;;;;;;;11.13;5.72;;;;;;;6.81;90.90;95346.56;5026067;28;20041;-58
2021/12/04 14:24:30;;;;;;;;;;;;;;;6.85;90.15;95347.59;5034002;28;20042;-57
2021/12/04 14:26:58;;;;;;;18.67;12.18;;;;;;;6.86;90.23;95349.22;5005586;28;19928;-57
2021/12/04 14:29:31;;;;;;;7.05;2.95;;;;;;;6.86;90.40;95359.97;5023492;28;20041;-57
2021/12/04 14:31:58;;;;;;;3.95;1.83;;;;;;;6.90;90.00;95369.09;5020146;28;20045;-62
2021/12/04 14:34:30;;;;;;;5.35;3.20;;;;;;;6.95;90.04;95379.03;5020501;28;20038;-56
2021/12/04 14:37:04;;;;;;;2.53;1.02;;;;;;;7.00;90.18;95370.94;5025662;28;20095;-57
2021/12/04 14:39:31;;;;;;;3.00;1.30;;;;;;;6.90;90.53;95373.69;5030233;28;20457;-55
2021/12/04 14:41:58;;;;;;;6.70;3.40;;;;;;;6.95;90.42;95372.84;5022560;28;20046;-54
2021/12/04 14:44:25;;;;;;;3.72;1.50;;;;;;;6.94;90.48;95374.75;5025097;28;20029;-53
2021/12/04 14:46:53;;;;;;;3.55;1.60;;;;;;;6.95;90.69;95384.41;5025766;28;20045;-56
2021/12/04 14:49:20;;;;;;;3.30;1.38;;;;;;;6.90;91.09;95382.53;5023975;28;20046;-57
2021/12/04 14:51:47;;;;;;;3.28;1.73;;;;;;;6.95;90.87;95395.19;5024444;28;20041;-57
2021/12/04 14:54:13;;;;;;;2.85;1.20;;;;;;;6.92;91.09;95394.94;5023019;28;20045;-50
2021/12/04 14:56:40;;;;;;;2.50;1.25;;;;;;;6.99;91.24;95390.84;5007114;28;20049;-56
2021/12/04 14:59:15;;;;;;;3.80;1.50;;;;;;;6.95;91.15;95399.75;5027314;28;20042;-55
2021/12/04 15:01:42;;;;;;;6.07;2.50;;;;;;;6.90;91.41;95396.00;5029305;28;20037;-56